Time;durP1;ratioP1;P1;durP2;ratioP2;P2;SDS_P1;SDS_P2;PMS_P1;PMS_P2;Temp;Humidity;BMP_temperature;BMP_pressure;BME280_temperature;BME280_humidity;BME280_pressure;Samples;Min_cycle;Max_cycle;Signal;HPM_P1;HPM_P2
2022/10/23 00:01:20;;;;;;;5.80;4.10;;;;;;;11.20;100.00;98227.88;5020231;28;20525;-73
2022/10/23 00:03:48;;;;;;;7.53;5.03;;;;;;;11.18;100.00;98227.16;5020186;28;20274;-73
2022/10/23 00:06:15;;;;;;;8.27;5.30;;;;;;;11.21;100.00;98222.47;5020091;28;20272;-74
2022/10/23 00:08:43;;;;;;;6.27;5.00;;;;;;;11.20;100.00;98219.94;5020172;28;20303;-74
2022/10/23 00:11:11;;;;;;;6.23;4.90;;;;;;;11.23;100.00;98211.78;5020092;28;20221;-75
2022/10/23 00:13:38;;;;;;;8.00;5.20;;;;;;;11.24;100.00;98208.16;5020016;28;20508;-75
2022/10/23 00:16:06;;;;;;;6.67;4.60;;;;;;;11.21;100.00;98197.81;5019906;28;20214;-73
2022/10/23 00:18:32;;;;;;;5.30;4.30;;;;;;;11.16;100.00;98199.94;5018426;28;20260;-73
2022/10/23 00:20:59;;;;;;;6.73;4.77;;;;;;;11.15;100.00;98198.25;5019919;28;20266;-74
2022/10/23 00:23:26;;;;;;;6.47;4.77;;;;;;;11.11;100.00;98196.75;5019926;28;20255;-74
2022/10/23 00:25:54;;;;;;;5.73;4.70;;;;;;;11.06;100.00;98206.84;5019780;28;20275;-73
2022/10/23 00:28:21;;;;;;;4.97;4.30;;;;;;;11.06;100.00;98205.03;5019718;28;20256;-74
2022/10/23 00:30:47;;;;;;;5.57;4.80;;;;;;;11.05;100.00;98207.75;5019840;28;20283;-75
2022/10/23 00:33:14;;;;;;;6.87;4.23;;;;;;;11.05;100.00;98218.34;5019783;28;20219;-74
2022/10/23 00:35:41;;;;;;;5.57;3.80;;;;;;;11.00;100.00;98205.44;5019694;28;20257;-74
2022/10/23 00:38:08;;;;;;;5.73;4.70;;;;;;;11.02;100.00;98206.19;5019555;28;20250;-74
2022/10/23 00:40:35;;;;;;;4.80;4.23;;;;;;;10.96;100.00;98203.13;5019402;28;20227;-74
2022/10/23 00:43:03;;;;;;;4.93;4.10;;;;;;;10.94;100.00;98211.16;5017708;28;20284;-74
2022/10/23 00:45:32;;;;;;;6.90;4.67;;;;;;;10.93;100.00;98213.91;5019328;28;20236;-75
2022/10/23 00:48:00;;;;;;;5.70;4.80;;;;;;;10.92;100.00;98209.56;5019367;28;20498;-74
2022/10/23 00:50:30;;;;;;;6.93;4.27;;;;;;;10.93;100.00;98219.19;5019380;28;20219;-74
2022/10/23 00:53:00;;;;;;;5.47;4.63;;;;;;;10.91;100.00;98210.53;5019294;28;20246;-74
2022/10/23 00:55:29;;;;;;;7.43;4.63;;;;;;;10.90;100.00;98203.56;5018798;28;20223;-74
2022/10/23 00:57:56;;;;;;;6.73;5.00;;;;;;;10.87;100.00;98198.47;5019124;28;20225;-74
2022/10/23 01:00:27;;;;;;;6.70;5.00;;;;;;;10.87;100.00;98198.47;5019115;28;20222;-74
2022/10/23 01:02:56;;;;;;;6.03;4.67;;;;;;;10.86;100.00;98196.78;5019046;28;20273;-74
2022/10/23 01:05:28;;;;;;;5.77;4.67;;;;;;;10.82;100.00;98200.59;5019056;28;20323;-74
2022/10/23 01:08:00;;;;;;;5.33;4.50;;;;;;;10.84;100.00;98193.41;5018047;28;20218;-74
2022/10/23 01:10:34;;;;;;;5.47;4.80;;;;;;;10.87;100.00;98199.31;5018662;28;20225;-75
2022/10/23 01:13:08;;;;;;;6.87;5.43;;;;;;;10.84;100.00;98193.41;5018864;28;20258;-74
2022/10/23 01:15:42;;;;;;;7.90;5.23;;;;;;;10.88;100.00;98189.59;5018761;28;20215;-74
2022/10/23 01:18:20;;;;;;;5.87;5.17;;;;;;;10.86;100.00;98187.06;5018832;28;20529;-73
2022/10/23 01:20:53;;;;;;;5.67;4.90;;;;;;;10.82;100.00;98185.56;5018848;28;20266;-73
2022/10/23 01:23:36;;;;;;;6.47;4.83;;;;;;;10.76;100.00;98187.81;5019004;28;20314;-74
2022/10/23 01:26:25;;;;;;;6.50;5.07;;;;;;;10.73;100.00;98190.66;5018593;28;20272;-74
2022/10/23 01:28:59;;;;;;;7.17;5.10;;;;;;;10.72;100.00;98179.25;5001856;28;20345;-74
2022/10/23 01:31:32;;;;;;;6.90;5.27;;;;;;;10.69;100.00;98179.44;5018554;28;20224;-73
2022/10/23 01:34:05;;;;;;;6.33;5.20;;;;;;;10.68;100.00;98175.13;5016687;28;20220;-74
2022/10/23 01:36:33;;;;;;;7.27;5.20;;;;;;;10.66;100.00;98168.25;5018602;28;20264;-73
2022/10/23 01:39:06;;;;;;;6.20;5.57;;;;;;;10.64;100.00;98162.22;5018493;28;20260;-73
2022/10/23 01:41:40;;;;;;;7.73;5.63;;;;;;;10.62;100.00;98167.59;5018351;28;20302;-73
2022/10/23 01:44:14;;;;;;;6.87;5.83;;;;;;;10.61;100.00;98165.06;5018568;28;20771;-73
2022/10/23 01:46:43;;;;;;;9.87;6.40;;;;;;;10.64;100.00;98155.13;5018228;28;20272;-74
2022/10/23 01:49:14;;;;;;;10.53;6.37;;;;;;;10.66;100.00;98153.25;5018361;28;20254;-75
2022/10/23 01:51:43;;;;;;;7.80;6.30;;;;;;;10.70;100.00;98153.88;5018211;28;20258;-74
2022/10/23 01:54:13;;;;;;;10.43;6.90;;;;;;;10.71;100.00;98153.75;5018180;28;20267;-74
2022/10/23 01:56:43;;;;;;;8.03;6.03;;;;;;;10.70;100.00;98154.69;5018031;28;20622;-74
2022/10/23 01:59:15;;;;;;;7.20;6.20;;;;;;;10.68;100.00;98161.03;5018082;28;20221;-74
2022/10/23 02:01:44;;;;;;;8.30;5.90;;;;;;;10.72;100.00;98152.81;5016653;28;20221;-74
2022/10/23 02:04:16;;;;;;;8.33;6.87;;;;;;;10.74;100.00;98156.19;5017968;28;20221;-74
2022/10/23 02:06:42;;;;;;;9.60;6.30;;;;;;;10.74;100.00;98144.75;5017136;28;20353;-74
2022/10/23 02:09:09;;;;;;;7.40;5.77;;;;;;;10.73;100.00;98156.28;5017950;28;20264;-74
2022/10/23 02:11:44;;;;;;;8.00;5.93;;;;;;;10.70;100.00;98138.00;5017771;28;20305;-74
2022/10/23 02:14:18;;;;;;;8.57;6.07;;;;;;;10.70;100.00;98138.84;5017814;28;20255;-74
2022/10/23 02:16:49;;;;;;;8.63;5.63;;;;;;;10.67;100.00;98141.72;5017884;28;20218;-73
2022/10/23 02:19:25;;;;;;;7.33;5.97;;;;;;;10.64;100.00;98141.06;5017835;28;20254;-74
2022/10/23 02:21:55;;;;;;;8.50;5.63;;;;;;;10.62;100.00;98135.03;5017651;28;20258;-73
2022/10/23 02:24:30;;;;;;;6.57;5.67;;;;;;;10.66;100.00;98126.81;5017644;28;20260;-74
2022/10/23 02:27:00;;;;;;;7.60;6.13;;;;;;;10.70;100.00;98130.09;5015978;28;20663;-73
2022/10/23 02:29:32;;;;;;;7.13;6.10;;;;;;;10.67;100.00;98117.06;5017570;28;20265;-74
2022/10/23 02:31:59;;;;;;;7.13;5.63;;;;;;;10.64;100.00;98114.66;5017638;28;20263;-74
2022/10/23 02:34:26;;;;;;;6.80;5.70;;;;;;;10.64;100.00;98122.56;5017747;28;20270;-73
2022/10/23 02:36:53;;;;;;;7.67;5.67;;;;;;;10.60;100.00;98127.22;5017549;28;20628;-75
2022/10/23 02:39:21;;;;;;;8.87;5.97;;;;;;;10.61;100.00;98118.34;5017523;28;20286;-75
2022/10/23 02:41:56;;;;;;;9.00;6.03;;;;;;;10.68;100.00;98118.75;5017463;28;20278;-72
2022/10/23 02:44:42;;;;;;;9.43;6.03;;;;;;;10.73;100.00;98106.91;5017327;28;20219;-73
2022/10/23 02:47:30;;;;;;;7.33;6.10;;;;;;;10.74;100.00;98105.09;5017269;28;20720;-73
2022/10/23 02:50:05;;;;;;;7.20;5.67;;;;;;;10.77;100.00;98102.25;5017285;28;20222;-73
2022/10/23 02:52:38;;;;;;;10.70;6.13;;;;;;;10.79;100.00;98100.34;5015599;28;20220;-73
2022/10/23 02:55:23;;;;;;;8.73;6.07;;;;;;;10.78;100.00;98096.00;5017322;28;20265;-73
2022/10/23 02:57:54;;;;;;;8.13;5.80;;;;;;;10.77;100.00;98092.50;5017299;28;20248;-74
2022/10/23 03:00:24;;;;;;;8.23;5.80;;;;;;;10.79;100.00;98095.06;5017191;28;20222;-73
2022/10/23 03:02:56;;;;;;;6.60;5.30;;;;;;;10.80;100.00;98086.16;5017218;28;20228;-73
2022/10/23 03:05:26;;;;;;;6.23;5.50;;;;;;;10.83;100.00;98091.25;5017183;28;20219;-73
2022/10/23 03:07:53;;;;;;;7.03;5.53;;;;;;;10.81;100.00;98087.84;5017065;28;20238;-73
2022/10/23 03:10:20;;;;;;;6.37;5.63;;;;;;;10.80;100.00;98086.16;5017215;28;20272;-74
2022/10/23 03:12:47;;;;;;;8.40;6.00;;;;;;;10.82;100.00;98085.09;5017189;28;20262;-73
2022/10/23 03:15:15;;;;;;;7.47;5.53;;;;;;;10.82;100.00;98086.91;5017077;28;20217;-73
2022/10/23 03:17:44;;;;;;;7.57;5.50;;;;;;;10.81;100.00;98082.56;5016655;28;20227;-73
2022/10/23 03:20:11;;;;;;;5.83;5.23;;;;;;;10.81;100.00;98083.44;5021049;28;20218;-73
2022/10/23 03:22:39;;;;;;;6.07;4.93;;;;;;;10.77;100.00;98091.69;5021066;28;20265;-73
2022/10/23 03:25:06;;;;;;;7.13;5.30;;;;;;;10.74;100.00;98091.88;5020989;28;20571;-73
2022/10/23 03:27:34;;;;;;;6.13;5.43;;;;;;;10.69;100.00;98084.28;5020910;28;20276;-74
2022/10/23 03:30:00;;;;;;;5.90;5.07;;;;;;;10.65;100.00;98093.38;5020685;28;20242;-73
2022/10/23 03:32:27;;;;;;;8.47;5.10;;;;;;;10.64;100.00;98077.66;5020730;28;20224;-73
2022/10/23 03:34:55;;;;;;;6.77;5.30;;;;;;;10.59;100.00;98077.94;5020800;28;20251;-73
2022/10/23 03:37:22;;;;;;;5.93;4.63;;;;;;;10.57;100.00;98079.84;5020805;28;20220;-73
2022/10/23 03:39:49;;;;;;;6.83;4.67;;;;;;;10.52;100.00;98076.69;5020704;28;20257;-73
2022/10/23 03:42:16;;;;;;;8.50;4.70;;;;;;;10.51;100.00;98067.06;5020640;28;20584;-73
2022/10/23 03:44:42;;;;;;;7.63;5.63;;;;;;;10.50;100.00;98069.81;5018876;28;20220;-73
2022/10/23 03:47:10;;;;;;;6.13;5.40;;;;;;;10.57;100.00;98071.06;5020499;28;20280;-74
2022/10/23 03:49:37;;;;;;;7.73;5.67;;;;;;;10.55;100.00;98071.19;5020517;28;20268;-74
2022/10/23 03:52:05;;;;;;;5.90;5.30;;;;;;;10.56;100.00;98072.03;5020531;28;20246;-74
2022/10/23 03:54:32;;;;;;;9.53;6.03;;;;;;;10.57;100.00;98064.00;5020459;28;20692;-73
2022/10/23 03:56:59;;;;;;;6.50;5.80;;;;;;;10.53;100.00;98062.50;5020361;28;20265;-74
2022/10/23 03:59:26;;;;;;;6.03;5.40;;;;;;;10.49;100.00;98055.78;5020456;28;20275;-73
2022/10/23 04:01:53;;;;;;;9.30;6.00;;;;;;;10.52;100.00;98060.00;5020342;28;20261;-73
2022/10/23 04:04:20;;;;;;;7.90;5.67;;;;;;;10.47;100.00;98062.13;5020318;28;20221;-73
2022/10/23 04:06:46;;;;;;;6.87;4.90;;;;;;;10.43;100.00;98063.28;5020280;28;20238;-73
2022/10/23 04:09:14;;;;;;;7.30;5.07;;;;;;;10.41;100.00;98068.66;5018578;28;20298;-73
2022/10/23 04:11:41;;;;;;;5.87;4.93;;;;;;;10.45;100.00;98074.59;5020243;28;20314;-73
2022/10/23 04:14:07;;;;;;;6.93;5.60;;;;;;;10.53;100.00;98073.09;5020128;28;20245;-73
2022/10/23 04:16:34;;;;;;;7.80;6.40;;;;;;;10.58;100.00;98070.16;5020048;28;20260;-74
2022/10/23 04:19:01;;;;;;;10.00;5.97;;;;;;;10.64;100.00;98064.44;5019992;28;20244;-73
2022/10/23 04:21:27;;;;;;;9.60;5.57;;;;;;;10.61;100.00;98062.00;5019957;28;20219;-73
2022/10/23 04:23:54;;;;;;;7.03;5.73;;;;;;;10.55;100.00;98065.91;5020035;28;20222;-74
2022/10/23 04:26:22;;;;;;;7.80;5.20;;;;;;;10.55;100.00;98070.34;5019725;28;20217;-75
2022/10/23 04:28:49;;;;;;;6.20;5.03;;;;;;;10.49;100.00;98070.78;5018956;28;20281;-75
2022/10/23 04:31:16;;;;;;;7.83;5.23;;;;;;;10.47;100.00;98084.09;5019686;28;20224;-74
2022/10/23 04:33:42;;;;;;;6.20;4.90;;;;;;;10.43;100.00;98081.75;5019753;28;20257;-73
2022/10/23 04:36:10;;;;;;;7.87;4.60;;;;;;;10.36;100.00;98075.22;5018047;28;20621;-73
2022/10/23 04:38:36;;;;;;;7.03;5.30;;;;;;;10.32;100.00;98076.38;5019670;28;20574;-73
2022/10/23 04:41:03;;;;;;;7.80;5.73;;;;;;;10.36;100.00;98069.94;5019577;28;20249;-73
2022/10/23 04:43:31;;;;;;;5.93;5.00;;;;;;;10.35;100.00;98079.66;5019519;28;20618;-73
2022/10/23 04:45:58;;;;;;;7.17;5.60;;;;;;;10.39;100.00;98083.78;5019632;28;20225;-75
2022/10/23 04:48:25;;;;;;;7.43;5.87;;;;;;;10.43;100.00;98079.97;5019410;28;20326;-73
2022/10/23 04:50:56;;;;;;;6.33;4.93;;;;;;;10.46;100.00;98073.66;5019378;28;20218;-73
2022/10/23 04:53:23;;;;;;;7.13;5.67;;;;;;;10.47;100.00;98072.69;5019346;28;20227;-73
2022/10/23 04:55:51;;;;;;;7.70;5.43;;;;;;;10.46;100.00;98065.72;5019300;28;20224;-73
2022/10/23 04:58:17;;;;;;;6.50;5.10;;;;;;;10.44;100.00;98078.16;5019196;28;20275;-73
2022/10/23 05:00:46;;;;;;;7.27;5.10;;;;;;;10.51;100.00;98074.19;5017624;28;20534;-73
2022/10/23 05:03:13;;;;;;;6.47;5.37;;;;;;;10.52;100.00;98066.13;5019179;28;20254;-73
2022/10/23 05:05:41;;;;;;;7.53;5.40;;;;;;;10.59;100.00;98071.84;5019189;28;20221;-73
2022/10/23 05:08:08;;;;;;;5.97;4.80;;;;;;;10.60;100.00;98068.22;5019012;28;20279;-73
2022/10/23 05:10:35;;;;;;;7.00;5.13;;;;;;;10.65;100.00;98071.41;5019140;28;20221;-73
2022/10/23 05:13:02;;;;;;;7.60;5.50;;;;;;;10.71;100.00;98065.69;5018913;28;20522;-73
2022/10/23 05:15:28;;;;;;;6.83;4.90;;;;;;;10.76;100.00;98059.09;5018867;28;20248;-73
2022/10/23 05:17:59;;;;;;;6.30;4.77;;;;;;;10.82;100.00;98055.19;5018871;28;20304;-73
2022/10/23 05:20:30;;;;;;;6.87;4.87;;;;;;;10.86;100.00;98051.38;5018832;28;20229;-73
2022/10/23 05:23:00;;;;;;;5.30;4.47;;;;;;;10.86;100.00;98054.88;5018690;28;20222;-74
2022/10/23 05:25:27;;;;;;;5.60;4.90;;;;;;;10.87;100.00;98050.41;5018723;28;20221;-73
2022/10/23 05:27:53;;;;;;;6.50;5.07;;;;;;;10.90;100.00;98044.91;5016972;28;20240;-74
2022/10/23 05:30:20;;;;;;;5.63;4.57;;;;;;;10.90;100.00;98039.63;5018678;28;20253;-74
2022/10/23 05:32:47;;;;;;;6.40;4.60;;;;;;;10.88;100.00;98044.19;5018577;28;20268;-73
2022/10/23 05:35:18;;;;;;;8.77;5.10;;;;;;;10.85;100.00;98044.38;5018540;28;20257;-74
2022/10/23 05:37:47;;;;;;;5.30;4.43;;;;;;;10.86;100.00;98043.44;5018531;28;20271;-74
2022/10/23 05:40:13;;;;;;;6.17;4.17;;;;;;;10.87;100.00;98051.25;5018399;28;20223;-74
2022/10/23 05:42:40;;;;;;;5.30;4.80;;;;;;;10.90;100.00;98042.25;5018361;28;20221;-74
2022/10/23 05:45:08;;;;;;;7.40;4.40;;;;;;;10.93;100.00;98034.09;5018380;28;20276;-74
2022/10/23 05:47:35;;;;;;;5.80;4.90;;;;;;;10.91;100.00;98030.72;5018208;28;20243;-74
2022/10/23 05:50:01;;;;;;;6.90;5.00;;;;;;;10.90;100.00;98029.03;5018246;28;20249;-74
2022/10/23 05:52:29;;;;;;;4.87;4.47;;;;;;;10.87;100.00;98030.09;5016500;28;20398;-73
2022/10/23 05:54:56;;;;;;;6.90;4.50;;;;;;;10.81;100.00;98034.97;5018150;28;20263;-73
2022/10/23 05:57:23;;;;;;;6.20;4.87;;;;;;;10.73;100.00;98029.41;5018038;28;20249;-73
2022/10/23 05:59:49;;;;;;;7.10;5.03;;;;;;;10.68;100.00;98039.44;5018159;28;20306;-73
2022/10/23 06:02:16;;;;;;;8.07;5.00;;;;;;;10.63;100.00;98031.84;5018169;28;20322;-73
2022/10/23 06:04:43;;;;;;;5.23;4.73;;;;;;;10.64;100.00;98022.16;5018118;28;20221;-74
2022/10/23 06:07:09;;;;;;;6.23;4.57;;;;;;;10.61;100.00;98032.91;5018036;28;20303;-74
2022/10/23 06:09:37;;;;;;;6.87;5.23;;;;;;;10.59;100.00;98019.81;5018196;28;20308;-73
2022/10/23 06:12:04;;;;;;;8.07;5.27;;;;;;;10.68;100.00;98023.59;5018057;28;20574;-74
2022/10/23 06:14:31;;;;;;;6.27;5.27;;;;;;;10.77;100.00;98015.84;5018060;28;20225;-74
2022/10/23 06:16:58;;;;;;;7.43;5.20;;;;;;;10.90;100.00;98015.81;5017994;28;20268;-74
2022/10/23 06:19:25;;;;;;;8.87;5.57;;;;;;;11.02;100.00;98014.94;5016229;28;20571;-74
2022/10/23 06:21:51;;;;;;;8.63;5.40;;;;;;;11.09;100.00;98019.69;5017963;28;20455;-74
2022/10/23 06:24:18;;;;;;;7.30;5.07;;;;;;;11.13;100.00;98015.00;5017861;28;20273;-74
2022/10/23 06:26:46;;;;;;;6.00;4.97;;;;;;;11.17;100.00;98008.50;5018085;28;20251;-75
2022/10/23 06:29:13;;;;;;;6.97;4.90;;;;;;;11.13;100.00;98004.44;5017594;28;20723;-74
2022/10/23 06:31:39;;;;;;;7.50;4.73;;;;;;;11.04;100.00;98011.22;5017711;28;20337;-74
2022/10/23 06:34:06;;;;;;;6.30;4.80;;;;;;;11.03;100.00;98012.19;5017705;28;20252;-74
2022/10/23 06:36:33;;;;;;;5.43;4.37;;;;;;;11.06;100.00;98019.88;5017513;28;20283;-74
2022/10/23 06:38:59;;;;;;;5.40;4.20;;;;;;;11.07;100.00;98021.56;5017603;28;20227;-74
2022/10/23 06:41:26;;;;;;;6.57;4.40;;;;;;;11.05;100.00;98017.34;5017512;28;20224;-74
2022/10/23 06:43:54;;;;;;;6.27;4.27;;;;;;;11.12;100.00;98014.16;5015694;28;20272;-74
2022/10/23 06:46:21;;;;;;;7.67;5.03;;;;;;;11.23;100.00;98010.72;5017401;28;20225;-74
2022/10/23 06:48:48;;;;;;;7.00;4.80;;;;;;;11.28;100.00;98013.88;5017265;28;20325;-74
2022/10/23 06:51:16;;;;;;;5.20;4.67;;;;;;;11.36;100.00;98008.84;5017455;28;20225;-74
2022/10/23 06:53:44;;;;;;;5.50;4.57;;;;;;;11.41;100.00;98004.91;5016813;28;20263;-75
2022/10/23 06:56:11;;;;;;;6.00;5.00;;;;;;;11.49;100.00;98007.00;5017302;28;20288;-75
